Time;durP1;ratioP1;P1;durP2;ratioP2;P2;SDS_P1;SDS_P2;PMS_P1;PMS_P2;Temp;Humidity;BMP_temperature;BMP_pressure;BME280_temperature;BME280_humidity;BME280_pressure;Samples;Min_cycle;Max_cycle;Signal;HPM_P1;HPM_P2
2022/01/23 00:02:08;;;;;;;;;41.25;36.25;;;;;8.09;63.31;103242.13;5102350;27;45602;-59
2022/01/23 00:04:34;;;;;;;;;45.25;34.25;;;;;8.07;63.53;103239.47;5102624;27;45366;-60
2022/01/23 00:07:03;;;;;;;;;45.25;39.25;;;;;8.08;63.16;103235.03;5102258;27;45326;-60
2022/01/23 00:09:30;;;;;;;;;32.75;29.25;;;;;8.08;62.86;103237.69;5102263;27;45445;-60
2022/01/23 00:11:56;;;;;;;;;47.75;37.50;;;;;8.06;63.11;103239.47;5102318;27;45411;-59
2022/01/23 00:17:17;;;;;;;;;39.00;35.75;;;;;7.87;63.51;103209.09;5102420;27;45351;-60
2022/01/23 00:19:42;;;;;;;;;39.50;31.25;;;;;8.00;63.22;103234.97;5102166;27;45374;-61
2022/01/23 00:22:10;;;;;;;;;45.00;33.00;;;;;8.03;63.41;103231.44;5102115;27;45893;-60
2022/01/23 05:31:36;;;;;;;;;32.75;21.50;;;;;7.79;62.53;103125.41;1428783;25;45965;-76
2022/01/23 05:34:01;;;;;;;;;34.25;24.00;;;;;7.59;62.36;103086.16;5055806;28;45467;-76
2022/01/23 05:36:26;;;;;;;;;32.25;25.75;;;;;7.85;62.49;103122.72;5056075;28;46005;-79
2022/01/23 05:38:52;;;;;;;;;31.50;25.00;;;;;7.84;61.98;103123.63;5055508;28;45292;-77
2022/01/23 05:41:17;;;;;;;;;31.75;24.50;;;;;7.78;62.16;103112.94;5055316;28;45597;-77
2022/01/23 05:43:43;;;;;;;;;33.25;26.75;;;;;7.74;62.63;103111.16;5084768;27;46019;-79
2022/01/23 05:46:08;;;;;;;;;40.25;30.00;;;;;7.79;62.38;103120.94;5055713;28;46115;-78
2022/01/23 05:48:33;;;;;;;;;31.00;25.25;;;;;7.73;62.87;103117.38;5055384;28;45355;-77
2022/01/23 05:50:59;;;;;;;;;34.50;26.50;;;;;7.72;63.00;103111.13;5055928;28;45846;-79
2022/01/23 05:53:24;;;;;;;;;35.00;28.50;;;;;7.78;62.14;103128.94;5055483;28;45579;-78
2022/01/23 05:55:50;;;;;;;;;31.25;24.00;;;;;7.70;61.88;103114.69;5055557;28;46148;-78
2022/01/23 05:58:15;;;;;;;;;30.25;24.50;;;;;7.64;62.35;103117.34;5056734;28;45331;-77
2022/01/23 06:00:41;;;;;;;;;37.75;25.50;;;;;7.61;62.15;103118.19;5055987;28;45509;-76
2022/01/23 06:03:06;;;;;;;;;27.25;25.25;;;;;7.65;61.96;103128.03;5055482;28;45484;-76
2022/01/23 06:05:32;;;;;;;;;27.00;22.00;;;;;7.62;62.18;103121.75;5065746;28;45921;-78
2022/01/23 06:07:57;;;;;;;;;32.50;26.25;;;;;7.60;61.98;103119.09;5053735;28;45461;-76
2022/01/23 06:10:25;;;;;;;;;35.75;27.75;;;;;7.55;61.64;103119.06;5055256;28;45655;-77
2022/01/23 06:12:51;;;;;;;;;26.50;22.25;;;;;7.53;62.08;103123.50;5055140;28;45532;-76
2022/01/23 06:15:17;;;;;;;;;34.50;27.25;;;;;7.55;62.29;103135.09;5055396;28;46411;-77
2022/01/23 06:17:43;;;;;;;;;23.25;20.50;;;;;7.55;62.41;103124.41;5055085;28;45529;-78
2022/01/23 06:20:11;;;;;;;;;19.75;18.50;;;;;7.56;62.22;103125.31;5055261;28;45422;-77
2022/01/23 06:22:37;;;;;;;;;25.00;23.75;;;;;7.60;62.09;103140.44;5054850;28;45465;-76
2022/01/23 06:25:05;;;;;;;;;24.75;23.25;;;;;7.59;62.47;103131.53;5054824;28;45455;-76
2022/01/23 06:27:31;;;;;;;;;31.25;24.25;;;;;7.60;62.16;103122.66;5054793;28;45438;-75
2022/01/23 06:29:57;;;;;;;;;29.50;22.00;;;;;7.45;62.38;103095.88;5052196;28;45495;-76
2022/01/23 06:32:24;;;;;;;;;20.00;17.25;;;;;7.35;62.34;103077.16;5064871;28;45402;-76
2022/01/23 06:34:49;;;;;;;;;30.25;21.25;;;;;7.63;62.74;103120.88;5075316;28;45445;-77
2022/01/23 06:37:15;;;;;;;;;23.50;18.50;;;;;7.52;62.69;103102.13;5075147;27;45489;-77
2022/01/23 06:39:40;;;;;;;;;24.25;19.00;;;;;7.59;62.29;103122.63;5075856;28;45725;-77
2022/01/23 06:42:06;;;;;;;;;19.25;18.00;;;;;7.55;61.91;103118.19;5074976;28;45279;-77
2022/01/23 06:44:31;;;;;;;;;29.50;21.00;;;;;7.64;62.34;103136.00;5075215;28;46287;-78
2022/01/23 06:46:57;;;;;;;;;29.00;21.00;;;;;7.64;61.96;103131.56;5074755;28;45354;-78
2022/01/23 06:49:23;;;;;;;;;25.75;19.25;;;;;7.52;62.10;103112.81;5074857;27;45360;-76
2022/01/23 06:51:51;;;;;;;;;32.50;22.75;;;;;7.61;62.63;103126.22;5073351;28;46769;-77
2022/01/23 06:54:17;;;;;;;;;17.50;12.50;;;;;7.61;62.35;103128.88;5074857;27;46397;-76
2022/01/23 06:56:42;;;;;;;;;21.00;17.25;;;;;7.60;62.15;103133.31;5074367;27;45654;-76
2022/01/23 06:59:07;;;;;;;;;27.25;17.50;;;;;7.59;61.57;103125.31;5075232;28;45652;-78
2022/01/23 07:01:33;;;;;;;;;18.00;14.25;;;;;7.51;61.69;103125.28;5074685;27;45299;-77
2022/01/23 07:03:58;;;;;;;;;19.25;17.75;;;;;7.52;61.72;103128.84;5072632;27;47218;-77
2022/01/23 07:06:24;;;;;;;;;17.00;14.75;;;;;7.50;61.85;103138.59;5074642;27;45389;-76
2022/01/23 07:08:49;;;;;;;;;20.25;18.00;;;;;7.46;62.18;103137.72;5073310;28;45457;-76
2022/01/23 07:11:15;;;;;;;;;18.75;15.25;;;;;7.49;62.51;103139.47;5074197;27;46638;-78
2022/01/23 07:13:40;;;;;;;;;19.50;14.00;;;;;7.48;62.03;103149.31;5075160;28;46048;-77
2022/01/23 07:16:06;;;;;;;;;22.25;14.75;;;;;7.48;61.98;103145.75;5074491;28;45472;-77
2022/01/23 07:18:32;;;;;;;;;15.75;13.75;;;;;7.45;61.29;103145.72;5083142;27;45363;-77
2022/01/23 07:20:57;;;;;;;;;16.75;13.75;;;;;7.42;61.41;103141.22;5074801;28;45401;-77
2022/01/23 07:23:23;;;;;;;;;15.75;13.75;;;;;7.39;61.49;103141.25;5074363;28;46022;-77
2022/01/23 07:25:49;;;;;;;;;15.00;13.25;;;;;7.40;61.14;103142.13;5074278;27;45326;-77
2022/01/23 07:28:18;;;;;;;;;17.00;12.00;;;;;7.43;61.68;103150.13;5074586;28;45346;-77
2022/01/23 07:30:57;;;;;;;;;17.75;12.75;;;;;7.29;61.50;103123.38;5074476;28;45510;-76
2022/01/23 07:33:22;;;;;;;;;13.50;12.25;;;;;7.42;61.38;103146.56;5076620;27;45361;-77
2022/01/23 07:35:48;;;;;;;;;22.25;15.25;;;;;7.38;61.52;103147.47;5077979;27;45353;-76
2022/01/23 07:38:16;;;;;;;;;23.75;12.50;;;;;7.36;61.77;103137.66;5078127;28;45457;-77
2022/01/23 07:40:48;;;;;;;;;18.50;16.75;;;;;7.31;62.04;103134.06;5077240;28;47100;-76
2022/01/23 07:43:14;;;;;;;;;13.25;11.25;;;;;7.38;61.84;103141.22;5077612;27;46188;-77
2022/01/23 07:45:40;;;;;;;;;18.00;13.00;;;;;7.38;62.46;103138.56;5076466;28;46196;-78
2022/01/23 07:48:06;;;;;;;;;18.25;15.25;;;;;7.21;62.16;103109.13;5078029;28;45226;-78
2022/01/23 07:50:32;;;;;;;;;21.00;14.75;;;;;7.27;62.29;103116.25;5076738;27;45231;-77
2022/01/23 07:52:57;;;;;;;;;13.50;13.50;;;;;7.34;62.61;103126.06;5078307;27;46392;-76
2022/01/23 07:55:23;;;;;;;;;17.25;15.50;;;;;7.39;62.67;103132.34;5078234;27;45346;-75
2022/01/23 07:57:48;;;;;;;;;12.75;11.50;;;;;7.44;62.69;103141.25;5079018;28;45625;-78
2022/01/23 08:00:14;;;;;;;;;19.00;15.75;;;;;7.42;62.53;103135.91;5078684;27;45577;-75
2022/01/23 08:02:40;;;;;;;;;16.25;15.00;;;;;7.44;62.03;103151.94;5078315;28;45354;-76
2022/01/23 08:05:06;;;;;;;;;21.25;13.75;;;;;7.43;61.67;103167.03;5059081;28;45776;-77
2022/01/23 08:07:32;;;;;;;;;18.25;16.50;;;;;7.39;61.67;103156.34;5078015;28;45441;-77
2022/01/23 08:10:05;;;;;;;;;16.25;11.75;;;;;7.43;62.11;103168.81;5076841;27;45378;-78
2022/01/23 08:12:31;;;;;;;;;15.25;13.25;;;;;7.33;61.89;103156.28;5077489;28;45325;-74
2022/01/23 08:14:58;;;;;;;;;17.25;14.50;;;;;7.36;61.33;103162.56;5077689;28;45405;-78
2022/01/23 08:17:24;;;;;;;;;15.50;13.25;;;;;7.41;61.86;103159.91;5085556;27;45442;-76
2022/01/23 08:20:00;;;;;;;;;18.00;14.25;;;;;7.40;61.35;103171.50;5077820;27;45317;-75
2022/01/23 08:22:27;;;;;;;;;22.00;17.00;;;;;7.42;60.87;103177.69;5075583;27;45565;-76
2022/01/23 08:24:54;;;;;;;;;20.00;13.50;;;;;7.34;61.06;103167.00;5075364;28;45425;-76
2022/01/23 08:27:21;;;;;;;;;20.00;13.50;;;;;7.42;61.36;103173.25;5075128;27;45468;-77
2022/01/23 08:29:47;;;;;;;;;13.00;13.00;;;;;7.31;61.16;103153.66;5075105;28;46068;-73
2022/01/23 08:32:12;;;;;;;;;20.50;18.25;;;;;7.42;61.46;103183.03;5075968;27;45662;-74
2022/01/23 08:34:39;;;;;;;;;14.00;11.50;;;;;7.45;62.29;103181.28;5076110;27;45394;-73
2022/01/23 08:37:06;;;;;;;;;14.25;12.00;;;;;7.49;62.04;103180.41;5076290;28;45485;-73
2022/01/23 08:39:34;;;;;;;;;18.50;15.25;;;;;7.52;61.93;103180.44;5075835;28;45521;-74
2022/01/23 08:42:01;;;;;;;;;21.25;18.50;;;;;7.55;61.59;103180.47;5075418;27;45483;-75
2022/01/23 08:44:28;;;;;;;;;6.75;6.75;;;;;7.55;62.01;103180.47;5074525;28;45450;-72
2022/01/23 08:46:54;;;;;;;;;18.50;15.50;;;;;7.59;61.38;103179.59;5076078;28;45284;-75
2022/01/23 08:49:21;;;;;;;;;22.50;18.25;;;;;7.61;61.32;103184.94;5075708;28;45369;-75
2022/01/23 08:51:49;;;;;;;;;19.00;14.00;;;;;7.59;61.31;103176.91;5076795;27;46266;-76
2022/01/23 08:54:15;;;;;;;;;21.25;18.25;;;;;7.42;61.42;103154.56;5076821;28;45452;-76
2022/01/23 08:56:41;;;;;;;;;26.75;19.00;;;;;7.53;61.45;103176.88;5076444;28;45414;-76
2022/01/23 08:59:06;;;;;;;;;22.75;16.75;;;;;7.54;61.97;103178.69;5076837;28;45450;-73
2022/01/23 09:01:34;;;;;;;;;20.50;15.75;;;;;7.50;61.37;103171.53;5076585;28;45416;-72
2022/01/23 09:03:59;;;;;;;;;17.00;17.00;;;;;7.51;61.41;103185.75;5076755;28;45327;-71
2022/01/23 09:06:25;;;;;;;;;23.75;18.00;;;;;7.27;61.50;103140.25;5076911;27;45219;-79
2022/01/23 09:08:52;;;;;;;;;21.00;18.00;;;;;7.49;61.49;103175.06;5057590;28;46061;-78
2022/01/23 09:14:12;;;;;;;;;12.50;12.50;;;;;7.47;61.54;103173.31;5076455;28;45472;-73
2022/01/23 09:16:42;;;;;;;;;16.75;15.25;;;;;7.52;60.98;103195.56;5076451;28;45472;-76
2022/01/23 09:19:09;;;;;;;;;14.75;14.75;;;;;7.37;60.84;103172.34;5077120;27;45405;-74
2022/01/23 09:21:35;;;;;;;;;21.00;14.75;;;;;7.48;61.72;103183.09;5076303;28;46505;-73
2022/01/23 09:24:01;;;;;;;;;23.00;15.50;;;;;7.42;61.40;103169.69;5076918;27;45425;-75
2022/01/23 09:26:26;;;;;;;;;17.00;15.00;;;;;7.44;61.62;103181.28;5076567;28;45343;-76
2022/01/23 09:28:55;;;;;;;;;21.75;17.25;;;;;7.45;61.28;103188.41;5076323;28;45508;-73
2022/01/23 09:31:34;;;;;;;;;19.00;16.00;;;;;7.43;61.30;103185.72;5057751;28;48688;-77
2022/01/23 09:34:00;;;;;;;;;24.75;17.50;;;;;7.43;61.86;103190.16;5076204;28;45275;-74
2022/01/23 09:36:27;;;;;;;;;21.00;18.25;;;;;7.37;61.95;103187.47;5075046;28;45307;-73
2022/01/23 09:38:53;;;;;;;;;20.50;14.25;;;;;7.42;62.13;103180.38;5075831;27;46219;-75
2022/01/23 09:41:24;;;;;;;;;19.00;15.00;;;;;7.43;62.33;103199.06;5075919;28;46023;-75
2022/01/23 09:43:50;;;;;;;;;25.00;19.50;;;;;7.43;62.31;103199.06;5076041;28;45528;-75
2022/01/23 09:46:16;;;;;;;;;24.50;18.25;;;;;7.37;62.48;103184.81;5076583;27;45441;-70
2022/01/23 09:48:46;;;;;;;;;34.00;19.50;;;;;7.27;62.23;103170.50;5076291;27;45384;-76
2022/01/23 09:51:13;;;;;;;;;24.25;20.00;;;;;7.37;62.48;103188.38;5068193;28;45353;-76
2022/01/23 09:53:40;;;;;;;;;20.00;12.00;;;;;7.42;62.10;103188.38;5075784;28;45441;-73
2022/01/23 09:56:08;;;;;;;;;21.50;16.75;;;;;7.30;61.85;103173.19;5074064;28;45381;-74
2022/01/23 09:58:38;;;;;;;;;20.00;11.50;;;;;7.33;62.44;103181.22;5075928;28;45599;-73
2022/01/23 10:01:03;;;;;;;;;20.50;17.00;;;;;7.31;61.34;103169.66;5076009;28;45424;-76
2022/01/23 10:03:29;;;;;;;;;16.50;14.50;;;;;7.27;61.28;103185.63;5077245;27;45244;-80
2022/01/23 10:05:56;;;;;;;;;16.00;12.00;;;;;7.26;61.78;103194.50;5076280;28;45215;-73
2022/01/23 10:08:27;;;;;;;;;12.50;12.25;;;;;7.23;61.50;103193.59;5076598;27;45411;-73
2022/01/23 10:10:55;;;;;;;;;12.75;8.50;;;;;7.07;61.82;103170.34;5075917;28;46231;-74
2022/01/23 10:13:22;;;;;;;;;19.75;12.75;;;;;7.15;61.71;103181.06;5079414;27;45404;-74
2022/01/23 10:15:48;;;;;;;;;10.00;9.75;;;;;7.13;61.96;103178.44;5085363;27;45396;-74
2022/01/23 10:18:13;;;;;;;;;16.00;13.00;;;;;7.18;61.50;103189.13;5071297;27;45316;-74
2022/01/23 10:20:39;;;;;;;;;16.75;12.50;;;;;7.26;61.63;103207.84;5065492;28;46355;-76
2022/01/23 10:23:05;;;;;;;;;36.00;22.50;;;;;7.26;61.84;103202.50;5075349;28;45397;-73
2022/01/23 10:25:32;;;;;;;;;27.50;23.50;;;;;7.26;62.02;103189.16;5075544;28;45518;-72
2022/01/23 10:28:08;;;;;;;;;43.25;35.00;;;;;7.33;63.01;103202.56;5074960;28;45481;-74
2022/01/23 10:30:41;;;;;;;;;13.50;13.50;;;;;7.35;62.18;103192.78;5075256;28;46109;-74
2022/01/23 10:33:15;;;;;;;;;12.75;11.00;;;;;7.35;61.44;103198.13;5075091;28;45333;-72
2022/01/23 10:36:01;;;;;;;;;14.00;11.50;;;;;7.35;61.87;103189.22;5075213;28;45299;-75
2022/01/23 10:38:31;;;;;;;;;21.00;14.00;;;;;7.17;61.87;103171.31;5075585;28;45323;-79
2022/01/23 10:41:08;;;;;;;;;14.25;12.00;;;;;7.34;61.34;103198.13;5076146;28;46330;-75
2022/01/23 10:49:02;;;;;;;;;32.25;27.00;;;;;7.28;62.59;103185.63;5075166;28;45329;-78
2022/01/23 10:51:36;;;;;;;;;19.50;14.50;;;;;7.25;62.04;103179.38;5086962;27;45714;-78
2022/01/23 10:54:06;;;;;;;;;14.75;11.75;;;;;7.22;62.27;103175.81;5075335;27;45291;-74
2022/01/23 10:57:08;;;;;;;;;16.75;13.75;;;;;7.11;63.13;103158.84;5074585;28;45550;-71
2022/01/23 10:59:47;;;;;;;;;18.25;14.25;;;;;7.28;62.39;103177.63;5027523;28;45540;-75
2022/01/23 11:02:25;;;;;;;;;20.75;16.25;;;;;7.23;62.64;103172.25;5069819;28;46579;-75
2022/01/23 11:04:55;;;;;;;;;17.25;11.00;;;;;7.12;62.39;103159.75;5074373;27;45486;-74
2022/01/23 11:07:21;;;;;;;;;19.75;12.00;;;;;7.16;62.41;103170.44;5073629;28;45343;-72
2022/01/23 11:09:47;;;;;;;;;16.50;13.50;;;;;7.19;62.42;103174.91;5073989;28;45523;-74
2022/01/23 11:17:53;;;;;;;;;14.50;12.00;;;;;7.30;61.50;103166.97;5081731;27;45309;-73
2022/01/23 11:20:38;;;;;;;;;16.75;12.75;;;;;7.23;61.65;103171.34;5074536;28;45495;-72
2022/01/23 11:23:23;;;;;;;;;15.00;12.00;;;;;7.23;62.07;103160.69;5075225;28;45358;-78
2022/01/23 11:25:55;;;;;;;;;11.00;9.00;;;;;7.26;62.03;103163.38;5075456;28;45385;-77
2022/01/23 11:28:32;;;;;;;;;16.50;14.25;;;;;7.28;61.92;103145.63;5074570;28;45465;-72
2022/01/23 11:30:58;;;;;;;;;12.50;10.00;;;;;7.23;61.72;103150.91;5056130;28;46485;-71
2022/01/23 11:33:25;;;;;;;;;13.75;10.75;;;;;7.20;61.99;103139.34;5074003;27;46288;-75
2022/01/23 11:35:50;;;;;;;;;18.25;11.25;;;;;7.25;62.57;103153.59;5074058;28;45334;-75
2022/01/23 11:38:20;;;;;;;;;16.00;11.00;;;;;7.16;62.14;103135.75;5056201;28;45473;-75
2022/01/23 11:54:39;;;;;;;;;15.00;12.25;;;;;7.18;62.34;103120.66;5094220;27;45444;-74
2022/01/23 11:57:35;;;;;;;;;17.50;15.00;;;;;7.22;62.19;103119.81;5094556;27;45819;-74
2022/01/23 12:00:10;;;;;;;;;15.50;13.25;;;;;7.29;62.36;103128.72;5110331;27;45421;-72
2022/01/23 12:02:38;;;;;;;;;17.00;12.25;;;;;7.30;62.02;103114.50;5094723;27;45671;-71
2022/01/23 12:05:17;;;;;;;;;16.50;13.75;;;;;7.31;61.80;103110.97;5094002;27;45493;-73
2022/01/23 12:07:46;;;;;;;;;16.75;14.50;;;;;7.33;62.05;103116.28;5075730;27;45413;-76
2022/01/23 12:10:21;;;;;;;;;15.25;12.00;;;;;7.38;61.93;103117.22;5075526;27;45398;-74
2022/01/23 12:12:50;;;;;;;;;8.00;7.00;;;;;7.40;60.87;103112.78;5075936;27;45602;-72
2022/01/23 12:18:17;;;;;;;;;10.00;9.75;;;;;7.40;60.94;103110.09;5102156;27;45447;-74
2022/01/23 12:20:44;;;;;;;;;10.75;10.75;;;;;7.41;60.94;103104.75;5097798;27;45421;-73
2022/01/23 12:23:10;;;;;;;;;11.50;10.00;;;;;7.43;60.70;103102.09;5089273;27;45721;-75
2022/01/23 12:25:44;;;;;;;;;16.50;10.75;;;;;7.44;60.84;103096.78;5097219;27;46275;-72
2022/01/23 12:28:10;;;;;;;;;14.25;11.75;;;;;7.45;60.76;103093.22;5090127;27;45564;-73
2022/01/23 12:30:36;;;;;;;;;17.50;14.50;;;;;7.42;60.33;103084.28;5098596;27;45433;-71
2022/01/23 12:33:28;;;;;;;;;13.25;8.00;;;;;7.50;60.31;103093.22;5079766;27;45440;-74
2022/01/23 12:36:01;;;;;;;;;18.50;12.00;;;;;7.51;60.44;103084.34;5097114;27;45449;-73
2022/01/23 12:38:33;;;;;;;;;18.00;13.25;;;;;7.50;60.29;103083.44;5097275;27;45419;-75
2022/01/23 12:41:13;;;;;;;;;23.50;21.50;;;;;7.50;60.40;103079.88;5097034;27;45491;-71
2022/01/23 12:43:38;;;;;;;;;33.00;29.50;;;;;7.46;60.84;103065.66;5097605;27;45441;-74
2022/01/23 12:46:05;;;;;;;;;21.75;18.50;;;;;7.47;60.41;103064.78;5097449;27;45447;-72
2022/01/23 12:48:33;;;;;;;;;18.00;16.00;;;;;7.50;60.58;103064.75;5096995;27;45358;-71
2022/01/23 12:51:02;;;;;;;;;19.75;18.25;;;;;7.46;60.83;103059.41;5097298;27;45216;-72
2022/01/23 12:53:57;;;;;;;;;17.75;14.25;;;;;7.46;60.57;103054.09;5096692;27;45386;-71
2022/01/23 12:56:40;;;;;;;;;21.25;18.00;;;;;7.48;61.20;103049.66;5096461;27;45605;-70
2022/01/23 12:59:09;;;;;;;;;13.50;12.00;;;;;7.51;61.20;103046.97;5096811;27;45400;-70
2022/01/23 13:01:38;;;;;;;;;20.75;18.00;;;;;7.47;61.48;103029.19;5078717;27;45389;-71
2022/01/23 13:04:08;;;;;;;;;16.75;14.25;;;;;7.60;60.86;103042.56;5097570;27;45314;-68
2022/01/23 13:06:48;;;;;;;;;22.75;13.50;;;;;7.64;60.68;103042.59;5096943;27;45603;-71
2022/01/23 13:15:00;;;;;;;;;17.25;16.75;;;;;7.54;61.34;103013.19;5096617;27;45696;-71
2022/01/23 13:31:42;;;;;;;;;20.00;15.00;;;;;7.69;60.37;103007.00;5095315;27;45360;-70
2022/01/23 13:34:24;;;;;;;;;18.50;18.50;;;;;7.71;60.27;103007.88;5096533;27;45199;-69
2022/01/23 13:36:54;;;;;;;;;20.00;16.75;;;;;7.72;60.97;103015.00;5096346;27;45429;-70
2022/01/23 13:39:27;;;;;;;;;23.25;19.00;;;;;7.72;60.95;103003.44;5096162;27;45405;-71
2022/01/23 13:42:26;;;;;;;;;22.00;14.25;;;;;7.68;60.87;102993.63;5096014;27;45812;-71
2022/01/23 13:53:25;;;;;;;;;17.50;14.00;;;;;7.66;60.73;102969.59;5095809;27;45449;-71
2022/01/23 13:58:53;;;;;;;;;17.50;13.50;;;;;7.80;60.76;102977.66;5061316;27;45554;-70
2022/01/23 14:01:35;;;;;;;;;14.25;12.00;;;;;7.77;60.17;102964.28;5095966;27;46230;-69
2022/01/23 14:04:00;;;;;;;;;22.75;17.75;;;;;7.80;60.29;102969.63;5095914;27;45360;-70
2022/01/23 14:06:26;;;;;;;;;20.50;14.50;;;;;7.75;60.62;102964.28;5095599;27;45308;-70
2022/01/23 14:09:12;;;;;;;;;23.00;15.75;;;;;7.84;60.72;102974.06;5095941;27;45654;-70
2022/01/23 14:11:39;;;;;;;;;18.50;13.75;;;;;7.81;60.77;102963.41;5095134;27;45503;-75
2022/01/23 14:14:25;;;;;;;;;15.25;13.00;;;;;7.71;60.22;102941.16;5095800;27;45334;-71
2022/01/23 14:16:53;;;;;;;;;18.25;14.25;;;;;7.86;60.31;102956.28;5096143;27;45387;-74
2022/01/23 14:19:25;;;;;;;;;25.50;19.25;;;;;7.77;60.44;102946.47;5102068;27;45246;-75
2022/01/23 14:22:02;;;;;;;;;21.00;15.25;;;;;7.83;60.39;102953.59;5105180;27;46344;-75
2022/01/23 14:24:32;;;;;;;;;18.00;17.00;;;;;7.82;60.91;102954.50;5077076;27;45470;-78
2022/01/23 14:27:10;;;;;;;;;24.25;17.00;;;;;7.80;60.70;102937.59;5077628;27;45335;-73
2022/01/23 14:29:52;;;;;;;;;26.25;18.00;;;;;7.75;60.37;102934.91;5095123;27;45421;-71
2022/01/23 14:32:26;;;;;;;;;19.50;18.75;;;;;7.83;60.92;102942.91;5094497;27;46156;-72
2022/01/23 14:35:05;;;;;;;;;25.50;18.00;;;;;7.88;61.20;102950.06;5076223;27;45425;-74
2022/01/23 14:37:31;;;;;;;;;23.50;19.50;;;;;7.91;60.58;102951.84;5076034;27;45344;-75
2022/01/23 14:40:14;;;;;;;;;20.00;14.25;;;;;7.87;60.05;102948.28;5094749;27;45400;-73
2022/01/23 14:42:40;;;;;;;;;21.00;14.75;;;;;7.88;60.66;102949.16;5094691;27;46358;-73
2022/01/23 14:45:09;;;;;;;;;16.50;13.00;;;;;7.80;60.90;102934.91;5094955;27;45424;-73
2022/01/23 14:47:39;;;;;;;;;20.00;17.25;;;;;7.84;60.37;102937.56;5094375;27;45898;-72
2022/01/23 14:50:11;;;;;;;;;19.25;15.75;;;;;7.88;59.71;102941.16;5094680;27;45574;-74
2022/01/23 14:52:40;;;;;;;;;29.25;19.50;;;;;7.71;59.81;102911.78;5076115;27;47172;-73
2022/01/23 14:55:06;;;;;;;;;20.25;15.50;;;;;7.88;59.66;102933.13;5094648;27;45455;-73
2022/01/23 14:57:33;;;;;;;;;19.00;17.50;;;;;7.88;59.39;102923.34;5095043;27;45340;-73
2022/01/23 14:59:59;;;;;;;;;13.75;11.50;;;;;7.87;59.70;102923.34;5095018;27;45522;-76
2022/01/23 15:02:25;;;;;;;;;14.25;13.50;;;;;7.81;59.81;102923.34;5076685;27;48348;-73
2022/01/23 15:04:51;;;;;;;;;21.00;14.25;;;;;7.79;59.13;102911.78;5094469;27;45425;-72
2022/01/23 15:07:18;;;;;;;;;20.00;18.00;;;;;7.85;59.74;102926.00;5095009;27;45418;-75
2022/01/23 15:09:46;;;;;;;;;23.25;18.75;;;;;7.95;59.60;102930.47;5094963;27;45301;-75
2022/01/23 15:12:13;;;;;;;;;22.50;19.00;;;;;7.98;59.24;102924.25;5076718;27;48175;-74
2022/01/23 15:14:38;;;;;;;;;20.00;15.75;;;;;7.92;59.35;102909.09;5094214;27;45425;-76
2022/01/23 15:17:04;;;;;;;;;23.00;15.50;;;;;8.04;58.68;102921.56;5096346;27;45513;-75
2022/01/23 15:19:29;;;;;;;;;16.50;14.00;;;;;8.02;58.46;102918.00;5095200;27;45428;-74
2022/01/23 15:21:55;;;;;;;;;17.75;14.50;;;;;8.08;58.80;102926.00;5094420;27;45389;-74
2022/01/23 15:24:20;;;;;;;;;19.50;17.25;;;;;8.08;58.35;102915.31;5094487;27;45244;-75
2022/01/23 15:26:46;;;;;;;;;15.00;13.00;;;;;8.05;58.67;102917.09;5094826;27;45385;-73
2022/01/23 15:29:12;;;;;;;;;21.50;16.25;;;;;8.09;58.74;102916.19;5094396;27;45258;-74
2022/01/23 15:31:38;;;;;;;;;26.50;19.50;;;;;8.10;58.43;102917.97;5094396;27;45329;-73
2022/01/23 15:34:04;;;;;;;;;23.00;19.00;;;;;8.01;58.50;102904.63;5094478;27;45369;-71
2022/01/23 15:36:30;;;;;;;;;23.25;20.75;;;;;7.98;58.55;102911.78;5094752;27;45588;-74
2022/01/23 15:38:56;;;;;;;;;17.00;15.50;;;;;8.01;58.00;102910.88;5094074;27;45412;-75
2022/01/23 15:41:21;;;;;;;;;25.75;18.75;;;;;8.01;58.19;102912.66;5094064;27;46119;-72
2022/01/23 15:43:47;;;;;;;;;20.00;16.00;;;;;7.95;58.18;102918.88;5094191;27;45365;-73
2022/01/23 15:46:13;;;;;;;;;17.50;16.00;;;;;7.74;58.51;102884.19;5094609;27;45492;-73
2022/01/23 15:48:39;;;;;;;;;20.50;18.25;;;;;7.87;58.81;102916.22;5094306;27;45385;-74
2022/01/23 15:51:05;;;;;;;;;22.00;16.75;;;;;7.83;58.72;102903.75;5094364;27;45420;-74
2022/01/23 15:53:30;;;;;;;;;19.25;18.50;;;;;7.75;58.93;102889.50;5095393;27;45275;-74
2022/01/23 15:55:57;;;;;;;;;24.75;20.25;;;;;7.76;59.22;102895.75;5098053;27;45670;-74
2022/01/23 15:58:23;;;;;;;;;21.50;18.50;;;;;7.79;59.25;102899.31;5097892;27;45335;-72
2022/01/23 16:00:48;;;;;;;;;22.50;17.75;;;;;7.83;59.16;102903.75;5098339;27;45373;-72
2022/01/23 16:03:13;;;;;;;;;23.25;19.25;;;;;7.84;59.09;102900.19;5099657;27;45523;-73
2022/01/23 16:05:39;;;;;;;;;27.50;21.25;;;;;7.87;58.92;102908.22;5110300;27;45235;-72
2022/01/23 16:08:04;;;;;;;;;25.25;23.25;;;;;7.88;59.26;102914.44;5098176;27;45607;-73
2022/01/23 16:10:30;;;;;;;;;22.00;19.75;;;;;7.78;59.01;102904.66;5098062;27;45600;-79
2022/01/23 16:12:56;;;;;;;;;28.50;20.50;;;;;7.73;59.00;102893.97;5099449;27;45394;-77
2022/01/23 16:15:21;;;;;;;;;25.75;18.75;;;;;7.86;59.53;102911.78;5114406;27;45416;-74
2022/01/23 16:17:48;;;;;;;;;26.00;20.50;;;;;7.86;59.18;102916.22;5106233;27;45404;-76
2022/01/23 16:20:15;;;;;;;;;24.00;22.00;;;;;7.85;59.51;102906.44;5097879;27;45488;-75
2022/01/23 16:22:42;;;;;;;;;24.00;24.00;;;;;7.88;59.81;102911.78;5097423;27;45369;-71
2022/01/23 16:25:08;;;;;;;;;20.00;18.50;;;;;7.89;59.71;102917.13;5097400;27;45454;-73
2022/01/23 16:27:34;;;;;;;;;37.75;31.25;;;;;7.89;59.75;102916.22;5097174;27;45567;-74
2022/01/23 16:29:59;;;;;;;;;30.25;26.75;;;;;7.86;59.62;102911.78;5097311;27;46126;-76
2022/01/23 16:32:25;;;;;;;;;33.50;25.00;;;;;7.76;59.80;102887.72;5097212;27;45610;-74
2022/01/23 16:34:50;;;;;;;;;50.75;38.00;;;;;7.85;59.35;102906.44;5097336;27;45518;-73
2022/01/23 16:37:16;;;;;;;;;65.33;48.33;;;;;7.85;59.08;102906.44;5097179;27;45441;-78
2022/01/23 16:39:41;;;;;;;;;32.25;29.50;;;;;7.81;59.21;102910.91;5075334;28;46133;-78
2022/01/23 16:42:07;;;;;;;;;37.50;32.50;;;;;7.79;59.30;102910.00;5091409;27;45380;-77
2022/01/23 16:44:32;;;;;;;;;37.25;33.50;;;;;7.73;59.20;102904.66;5079283;27;45416;-78
2022/01/23 16:46:58;;;;;;;;;29.00;29.00;;;;;7.75;59.91;102918.00;5097942;27;45517;-75
2022/01/23 16:49:23;;;;;;;;;50.50;40.50;;;;;7.73;59.04;102912.69;5098116;27;46133;-78
2022/01/23 16:51:49;;;;;;;;;50.00;39.75;;;;;7.62;59.93;102900.19;5097892;27;45487;-77
2022/01/23 16:54:17;;;;;;;;;33.25;30.00;;;;;7.70;59.47;102912.66;5097287;27;46087;-77
2022/01/23 16:56:43;;;;;;;;;53.25;40.00;;;;;7.72;59.89;102918.91;5096907;27;45467;-77
2022/01/23 16:59:10;;;;;;;;;53.50;42.00;;;;;7.73;59.70;102910.00;5097292;27;45385;-78
2022/01/23 17:01:36;;;;;;;;;47.00;39.25;;;;;7.78;59.38;102918.91;5097086;27;45403;-76
2022/01/23 17:04:02;;;;;;;;;57.75;41.25;;;;;7.77;59.81;102908.22;5096890;27;45401;-76
2022/01/23 17:06:29;;;;;;;;;61.67;47.00;;;;;7.82;59.70;102915.34;5095896;27;45528;-77
2022/01/23 17:08:56;;;;;;;;;48.00;40.75;;;;;7.79;59.72;102909.09;5096980;27;46030;-77
2022/01/23 17:11:21;;;;;;;;;45.50;37.00;;;;;7.76;59.19;102906.41;5096927;27;45423;-76
2022/01/23 17:13:47;;;;;;;;;34.00;31.00;;;;;7.82;59.50;102917.13;5097331;27;45329;-79
2022/01/23 17:16:14;;;;;;;;;37.00;33.25;;;;;7.74;59.53;102913.56;5096810;27;45426;-78
2022/01/23 17:18:40;;;;;;;;;34.50;30.00;;;;;7.79;59.58;102919.78;5096989;27;46148;-77
2022/01/23 17:21:06;;;;;;;;;36.50;31.75;;;;;7.82;59.35;102922.47;5078461;27;45389;-76
2022/01/23 17:23:32;;;;;;;;;37.25;30.00;;;;;7.82;59.18;102915.34;5097035;27;45435;-77
2022/01/23 17:25:58;;;;;;;;;29.50;29.00;;;;;7.74;59.00;102898.41;5096987;27;45630;-79
2022/01/23 17:28:23;;;;;;;;;33.25;29.25;;;;;7.81;59.42;102920.69;5099624;27;45431;-79
2022/01/23 17:30:49;;;;;;;;;31.25;27.50;;;;;7.76;59.50;102914.44;5099435;27;45526;-78
2022/01/23 17:33:14;;;;;;;;;35.50;30.75;;;;;7.78;59.02;102920.66;5097677;27;45358;-78
2022/01/23 17:35:40;;;;;;;;;47.75;36.25;;;;;7.74;59.48;102911.75;5110432;27;45463;-78